Time;durP1;ratioP1;P1;durP2;ratioP2;P2;SDS_P1;SDS_P2;PMS_P1;PMS_P2;Temp;Humidity;BMP_temperature;BMP_pressure;BME280_temperature;BME280_humidity;BME280_pressure;Samples;Min_cycle;Max_cycle;Signal;HPM_P1;HPM_P2
2021/04/26 00:01:14;;;;;;;1.27;0.70;;;;;;;4.34;56.83;101276.97;5116454;27;20234;-81
2021/04/26 00:03:40;;;;;;;0.70;0.70;;;;;;;4.25;57.04;101275.91;5116146;27;20208;-81
2021/04/26 00:06:06;;;;;;;0.70;0.70;;;;;;;4.18;57.09;101285.22;5117348;27;20223;-81
2021/04/26 00:08:32;;;;;;;0.63;0.63;;;;;;;4.24;56.21;101264.72;5116856;28;20211;-81
2021/04/26 00:10:59;;;;;;;0.60;0.60;;;;;;;4.29;54.60;101276.00;5117210;27;20206;-81
2021/04/26 00:13:25;;;;;;;1.30;0.73;;;;;;;4.24;53.89;101269.88;5114853;28;20225;-81
2021/04/26 00:15:51;;;;;;;1.77;0.80;;;;;;;4.19;54.32;101266.31;5117194;28;20200;-81
2021/04/26 00:18:17;;;;;;;3.63;0.70;;;;;;;4.17;53.68;101268.00;5116397;27;20204;-81
2021/04/26 00:20:44;;;;;;;1.53;0.70;;;;;;;4.12;54.67;101265.34;5117560;27;20687;-81
2021/04/26 00:23:10;;;;;;;0.67;0.67;;;;;;;4.06;52.26;101269.47;5115976;27;20209;-81
2021/04/26 00:25:36;;;;;;;0.70;0.70;;;;;;;4.05;54.20;101267.75;5117470;28;20204;-81
2021/04/26 00:28:03;;;;;;;1.13;0.80;;;;;;;4.00;52.00;101269.34;5116508;28;20223;-81
2021/04/26 00:30:30;;;;;;;0.80;0.70;;;;;;;4.00;52.28;101269.34;5116741;27;20622;-81
2021/04/26 00:32:57;;;;;;;1.00;0.50;;;;;;;3.96;51.08;101269.31;5116333;28;20210;-81
2021/04/26 00:35:23;;;;;;;0.60;0.60;;;;;;;3.93;49.35;101269.22;5117238;27;20196;-81
2021/04/26 00:37:50;;;;;;;1.90;0.50;;;;;;;3.81;48.62;101265.53;5116054;27;20227;-81
2021/04/26 00:40:17;;;;;;;1.70;0.60;;;;;;;3.85;52.02;101269.91;5113313;28;20236;-80
2021/04/26 00:42:44;;;;;;;0.60;0.60;;;;;;;3.89;52.50;101264.84;5112861;27;20230;-81
2021/04/26 00:45:12;;;;;;;0.87;0.60;;;;;;;3.80;52.82;101267.19;5111927;27;20208;-81
2021/04/26 00:47:40;;;;;;;0.47;0.47;;;;;;;3.78;52.39;101268.88;5112515;28;20223;-81
2021/04/26 00:50:10;;;;;;;0.70;0.60;;;;;;;3.70;51.67;101271.28;5112037;28;20722;-81
2021/04/26 00:52:36;;;;;;;0.83;0.60;;;;;;;3.68;53.04;101269.53;5112294;28;20219;-81
2021/04/26 00:55:04;;;;;;;1.17;0.50;;;;;;;3.69;54.01;101266.13;5112610;28;20626;-80
2021/04/26 00:57:30;;;;;;;0.97;0.60;;;;;;;3.68;52.83;101264.34;5111964;28;20223;-81
2021/04/26 00:59:56;;;;;;;2.23;0.60;;;;;;;3.64;50.15;101265.13;5112858;27;20210;-81
2021/04/26 01:02:24;;;;;;;1.77;0.80;;;;;;;3.47;49.67;101262.16;5111244;28;20712;-81
2021/04/26 01:04:51;;;;;;;1.13;0.80;;;;;;;3.05;48.98;101258.56;5112398;28;20632;-80
2021/04/26 01:07:17;;;;;;;0.50;0.50;;;;;;;2.96;50.43;101261.78;5111651;27;20219;-80
2021/04/26 01:09:43;;;;;;;1.13;0.67;;;;;;;2.82;50.97;101259.72;5111833;28;20298;-80
2021/04/26 01:12:16;;;;;;;1.07;0.97;;;;;;;2.90;52.06;101266.81;5111401;27;20207;-80
2021/04/26 01:14:48;;;;;;;0.70;0.70;;;;;;;3.03;54.34;101261.94;5110946;28;20585;-81
2021/04/26 01:17:21;;;;;;;0.70;0.60;;;;;;;3.03;55.36;101267.09;5111031;27;20219;-81
2021/04/26 01:20:12;;;;;;;1.30;0.70;;;;;;;2.91;56.12;101275.41;5112213;28;20218;-80
2021/04/26 01:23:16;;;;;;;1.47;0.70;;;;;;;2.99;56.12;101266.16;5110976;28;20211;-80
2021/04/26 01:25:44;;;;;;;0.53;0.53;;;;;;;3.03;56.46;101267.97;5112156;28;20207;-81
2021/04/26 01:28:28;;;;;;;2.60;0.70;;;;;;;2.75;57.29;101269.84;5111253;28;20268;-80
2021/04/26 01:30:58;;;;;;;0.80;0.60;;;;;;;2.58;57.74;101264.25;5111696;28;20298;-80
2021/04/26 01:33:29;;;;;;;3.10;0.70;;;;;;;2.66;58.13;101261.88;5110422;28;20204;-81
2021/04/26 01:36:00;;;;;;;0.97;0.67;;;;;;;2.68;57.40;101257.63;5111451;28;20207;-80
2021/04/26 01:38:29;;;;;;;1.80;0.50;;;;;;;2.82;57.12;101252.84;5111350;28;20206;-81
2021/04/26 01:40:57;;;;;;;0.60;0.60;;;;;;;2.77;54.81;101257.88;5111803;27;20196;-80
2021/04/26 01:43:26;;;;;;;1.43;0.80;;;;;;;2.83;55.75;101267.47;5111697;28;20199;-80
2021/04/26 01:45:56;;;;;;;0.90;0.60;;;;;;;2.92;54.99;101259.97;5111725;27;20742;-80
2021/04/26 01:48:25;;;;;;;1.60;0.80;;;;;;;3.02;56.26;101266.25;5110685;28;20208;-80
2021/04/26 01:50:54;;;;;;;0.67;0.67;;;;;;;2.59;57.54;101265.13;5111621;28;20206;-81
2021/04/26 01:53:21;;;;;;;1.27;0.90;;;;;;;2.22;56.64;101256.38;5110367;28;20208;-80
2021/04/26 01:55:48;;;;;;;1.63;0.70;;;;;;;1.90;56.44;101255.44;5111218;27;20207;-80
2021/04/26 01:58:15;;;;;;;2.00;0.97;;;;;;;1.74;59.82;101256.69;5111084;28;20200;-80
2021/04/26 02:00:41;;;;;;;1.03;0.93;;;;;;;1.91;59.98;101263.22;5113205;27;20669;-81
2021/04/26 02:03:08;;;;;;;1.00;0.90;;;;;;;2.16;59.42;101251.94;5112700;28;20223;-81
2021/04/26 02:05:35;;;;;;;0.70;0.70;;;;;;;2.33;58.66;101256.69;5113342;28;20203;-81
2021/04/26 02:08:03;;;;;;;0.60;0.60;;;;;;;2.37;57.96;101258.50;5112957;28;20223;-80
2021/04/26 02:10:30;;;;;;;0.40;0.40;;;;;;;2.22;56.00;101256.38;5113260;28;20212;-80
2021/04/26 02:12:57;;;;;;;0.40;0.40;;;;;;;1.88;58.30;101250.22;5112271;28;20207;-80
2021/04/26 02:15:26;;;;;;;1.10;0.67;;;;;;;1.70;62.33;101255.72;5112653;28;20260;-81
2021/04/26 02:17:52;;;;;;;2.37;1.07;;;;;;;1.65;63.09;101256.41;5112695;28;20223;-81
2021/04/26 02:20:18;;;;;;;0.97;0.90;;;;;;;1.70;63.50;101254.84;5114075;28;20263;-81
2021/04/26 02:22:48;;;;;;;1.10;1.00;;;;;;;1.86;62.59;101248.44;5112545;28;20227;-80
2021/04/26 02:25:18;;;;;;;3.73;1.10;;;;;;;2.08;62.67;101245.69;5114254;28;20215;-81
2021/04/26 02:27:45;;;;;;;1.40;1.30;;;;;;;2.20;62.97;101245.16;5113670;28;20231;-81
2021/04/26 02:30:12;;;;;;;1.40;1.30;;;;;;;2.16;63.16;101243.31;5113363;28;20689;-81
2021/04/26 02:32:46;;;;;;;1.83;1.30;;;;;;;2.27;62.60;101236.75;5113981;28;20203;-80
2021/04/26 02:35:15;;;;;;;2.80;1.53;;;;;;;2.36;62.53;101237.03;5113822;28;20215;-81
2021/04/26 02:37:50;;;;;;;1.17;1.07;;;;;;;2.43;61.88;101232.03;5113352;28;20235;-81
2021/04/26 02:40:19;;;;;;;4.67;1.50;;;;;;;2.43;61.45;101232.03;5114045;28;20290;-81
2021/04/26 02:42:48;;;;;;;1.47;0.80;;;;;;;2.37;61.71;101219.84;5113877;28;20234;-81
2021/04/26 02:45:19;;;;;;;0.93;0.70;;;;;;;2.35;61.34;101221.53;5114101;28;20211;-81
2021/04/26 02:47:46;;;;;;;1.57;0.80;;;;;;;2.43;60.81;101217.44;5113852;28;20250;-81
2021/04/26 02:50:18;;;;;;;0.77;0.50;;;;;;;2.52;60.22;101217.69;5114212;28;20778;-81
2021/04/26 02:52:46;;;;;;;1.03;0.50;;;;;;;2.45;59.99;101217.50;5113598;28;20207;-81
2021/04/26 02:55:13;;;;;;;0.80;0.67;;;;;;;2.39;59.96;101219.06;5115363;28;20210;-81
2021/04/26 02:57:41;;;;;;;1.10;0.60;;;;;;;2.35;60.05;101217.22;5114180;28;20234;-80
2021/04/26 03:00:08;;;;;;;0.93;0.60;;;;;;;2.41;59.39;101218.25;5114432;28;20214;-81
2021/04/26 03:02:35;;;;;;;0.50;0.50;;;;;;;2.34;59.20;101212.06;5113384;28;20227;-81
2021/04/26 03:05:03;;;;;;;0.50;0.50;;;;;;;2.30;60.26;101210.22;5115922;28;20760;-81
2021/04/26 03:07:30;;;;;;;0.60;0.50;;;;;;;2.06;56.02;101208.72;5112114;28;20227;-81
2021/04/26 03:09:57;;;;;;;0.40;0.40;;;;;;;1.83;59.24;101202.03;5112932;28;20251;-80
2021/04/26 03:12:23;;;;;;;1.33;0.50;;;;;;;1.88;60.76;101198.75;5112656;28;20231;-81
2021/04/26 03:14:51;;;;;;;0.87;0.60;;;;;;;1.88;59.81;101203.91;5111663;28;20855;-81
2021/04/26 03:17:17;;;;;;;1.63;0.50;;;;;;;2.00;60.55;101200.81;5111999;28;20227;-81
2021/04/26 03:19:44;;;;;;;0.47;0.40;;;;;;;2.02;59.93;101195.69;5113291;28;20203;-80
2021/04/26 03:22:11;;;;;;;0.87;0.50;;;;;;;2.09;59.35;101195.91;5111979;28;20238;-81
2021/04/26 03:24:37;;;;;;;1.13;0.50;;;;;;;2.10;58.59;101187.38;5110927;28;20203;-80
2021/04/26 03:27:05;;;;;;;0.40;0.40;;;;;;;2.14;56.59;101189.22;5113685;28;20284;-80
2021/04/26 03:29:31;;;;;;;2.40;0.33;;;;;;;2.05;58.81;101190.66;5114626;28;20214;-81
2021/04/26 03:32:00;;;;;;;1.17;0.43;;;;;;;2.13;58.55;101189.16;5115165;28;20200;-80
2021/04/26 03:34:27;;;;;;;0.70;0.60;;;;;;;2.22;59.08;101184.28;5114452;28;20206;-80
2021/04/26 03:36:54;;;;;;;0.33;0.33;;;;;;;2.32;55.79;101186.25;5115779;27;20219;-81
2021/04/26 03:39:21;;;;;;;1.17;0.43;;;;;;;2.36;54.02;101185.50;5115692;28;20207;-81
2021/04/26 03:41:47;;;;;;;1.20;0.57;;;;;;;2.40;53.02;101183.88;5114889;28;20683;-81
2021/04/26 03:44:15;;;;;;;1.70;0.57;;;;;;;2.28;55.49;101181.84;5114252;28;20200;-81
2021/04/26 03:46:51;;;;;;;1.57;0.40;;;;;;;2.14;56.96;101181.47;5115774;27;20238;-81
2021/04/26 03:49:20;;;;;;;0.30;0.30;;;;;;;2.22;57.21;101178.22;5114884;28;20195;-81
2021/04/26 03:51:46;;;;;;;0.47;0.47;;;;;;;2.28;56.80;101176.69;5114724;28;20197;-81
2021/04/26 03:54:12;;;;;;;0.77;0.60;;;;;;;2.29;54.30;101175.00;5114819;28;20207;-81
2021/04/26 03:56:38;;;;;;;0.57;0.50;;;;;;;2.10;56.20;101179.66;5114543;27;20237;-81
2021/04/26 03:59:04;;;;;;;1.27;0.50;;;;;;;2.14;57.16;101178.00;5114755;28;20205;-80
2021/04/26 04:01:30;;;;;;;0.47;0.43;;;;;;;2.11;56.09;101178.81;5115213;27;20913;-80
2021/04/26 04:03:56;;;;;;;0.53;0.50;;;;;;;2.13;54.41;101181.44;5113674;28;20202;-80
2021/04/26 04:06:23;;;;;;;0.40;0.40;;;;;;;2.19;54.33;101173.88;5115134;27;20230;-81
2021/04/26 04:08:49;;;;;;;0.40;0.40;;;;;;;2.24;55.50;101172.31;5115861;28;20663;-80
2021/04/26 04:11:15;;;;;;;1.93;0.63;;;;;;;2.27;54.00;101172.38;5114921;27;20256;-81
2021/04/26 04:13:41;;;;;;;0.93;0.60;;;;;;;2.31;54.39;101170.75;5114816;28;20211;-81
2021/04/26 04:16:07;;;;;;;0.77;0.50;;;;;;;2.34;54.46;101166.56;5114187;27;20226;-81
2021/04/26 04:18:33;;;;;;;1.00;0.50;;;;;;;2.22;56.93;101161.09;5114795;28;20553;-81
2021/04/26 04:21:00;;;;;;;1.13;0.43;;;;;;;2.16;57.14;101153.16;5115057;27;20234;-81
2021/04/26 04:23:27;;;;;;;0.60;0.60;;;;;;;2.00;58.97;101157.03;5114090;28;20230;-81
2021/04/26 04:25:53;;;;;;;0.50;0.50;;;;;;;1.96;60.13;101157.78;5115903;27;20211;-81
2021/04/26 04:28:19;;;;;;;1.37;0.60;;;;;;;2.02;59.22;101154.50;5114311;28;20218;-82
2021/04/26 04:30:45;;;;;;;1.37;0.60;;;;;;;2.11;56.84;101162.50;5114561;27;20599;-80
2021/04/26 04:33:11;;;;;;;1.23;0.60;;;;;;;2.24;56.17;101162.00;5114121;27;20199;-81
2021/04/26 04:35:37;;;;;;;1.57;0.70;;;;;;;2.33;55.80;101154.50;5114971;27;20204;-80
2021/04/26 04:38:04;;;;;;;1.30;0.60;;;;;;;2.39;56.42;101146.06;5113624;28;20227;-80
2021/04/26 04:40:31;;;;;;;0.60;0.60;;;;;;;2.42;58.33;101155.56;5115068;28;20669;-80
2021/04/26 04:42:57;;;;;;;0.80;0.80;;;;;;;2.25;55.68;101150.84;5114548;27;20219;-81
2021/04/26 04:45:23;;;;;;;1.53;0.90;;;;;;;2.19;56.76;101161.84;5115531;27;20257;-80
2021/04/26 04:47:49;;;;;;;3.30;0.87;;;;;;;2.19;56.84;101155.84;5114293;28;20219;-81
2021/04/26 04:50:15;;;;;;;1.63;0.87;;;;;;;2.24;56.62;101154.28;5114713;27;20218;-81
2021/04/26 04:52:41;;;;;;;1.30;0.60;;;;;;;2.30;56.20;101150.97;5114880;28;20199;-81
2021/04/26 04:55:09;;;;;;;1.47;0.90;;;;;;;2.37;56.18;101156.31;5114600;27;20725;-81
2021/04/26 04:57:36;;;;;;;1.20;0.80;;;;;;;2.42;55.16;101152.97;5113966;27;20227;-81
2021/04/26 05:00:04;;;;;;;1.70;0.77;;;;;;;2.48;56.06;101168.59;5113141;28;20199;-80
2021/04/26 05:02:30;;;;;;;0.90;0.90;;;;;;;2.24;57.51;101168.81;5112461;28;20247;-81
2021/04/26 05:04:55;;;;;;;0.97;0.70;;;;;;;2.24;57.96;101171.41;5114239;28;20203;-81
2021/04/26 05:07:21;;;;;;;0.70;0.63;;;;;;;2.27;56.47;101163.78;5113244;28;20227;-82
2021/04/26 05:09:47;;;;;;;0.80;0.60;;;;;;;2.33;55.44;101167.38;5112719;28;20821;-82
2021/04/26 05:12:14;;;;;;;2.13;0.90;;;;;;;2.35;55.96;101168.28;5111950;28;20214;-82
2021/04/26 05:14:43;;;;;;;2.33;0.90;;;;;;;2.42;54.49;101171.03;5113243;28;20207;-81
2021/04/26 05:17:09;;;;;;;1.23;0.83;;;;;;;2.41;55.97;101169.28;5111215;27;20276;-81
2021/04/26 05:19:35;;;;;;;1.10;0.83;;;;;;;2.45;55.77;101163.38;5112254;28;20657;-81
2021/04/26 05:22:02;;;;;;;1.03;0.83;;;;;;;2.46;56.47;101163.44;5113020;28;20231;-81
2021/04/26 05:24:28;;;;;;;2.23;1.57;;;;;;;2.51;57.43;101161.81;5112121;28;20206;-81
2021/04/26 05:26:54;;;;;;;2.50;1.07;;;;;;;2.55;56.50;101161.06;5113752;27;20227;-81
2021/04/26 05:29:20;;;;;;;1.17;0.87;;;;;;;2.56;57.36;101156.81;5113039;28;20257;-81
2021/04/26 05:31:47;;;;;;;1.73;1.10;;;;;;;2.58;57.02;101156.00;5113050;27;20238;-81
2021/04/26 05:34:13;;;;;;;1.30;0.90;;;;;;;2.58;57.16;101156.00;5112220;28;20250;-81
2021/04/26 05:36:39;;;;;;;1.63;1.20;;;;;;;2.65;57.53;101161.31;5112272;28;20685;-81
2021/04/26 05:39:05;;;;;;;6.70;1.90;;;;;;;2.73;57.93;101163.22;5113053;28;20200;-81
2021/04/26 05:41:31;;;;;;;10.00;2.00;;;;;;;2.80;58.51;101161.69;5112615;28;20213;-81
2021/04/26 05:43:57;;;;;;;5.87;1.93;;;;;;;2.86;57.66;101156.69;5111215;28;20597;-81
2021/04/26 05:46:24;;;;;;;3.60;1.80;;;;;;;2.92;56.71;101149.09;5112363;28;20265;-81
2021/04/26 05:48:51;;;;;;;5.37;1.93;;;;;;;3.00;57.48;101143.25;5112665;28;20699;-82
2021/04/26 05:51:17;;;;;;;1.70;1.53;;;;;;;3.06;58.59;101139.09;5113815;27;20585;-83
2021/04/26 05:53:43;;;;;;;2.70;1.20;;;;;;;3.11;58.10;101142.66;5113350;28;20562;-83
2021/04/26 05:56:09;;;;;;;5.27;1.30;;;;;;;3.20;56.91;101141.13;5113038;27;20231;-81
2021/04/26 05:58:36;;;;;;;3.83;1.40;;;;;;;3.25;56.04;101142.09;5114312;28;20207;-81
2021/04/26 06:01:02;;;;;;;4.07;1.50;;;;;;;3.30;55.69;101146.50;5114467;27;20203;-82
2021/04/26 06:03:28;;;;;;;1.70;1.50;;;;;;;3.42;56.17;101140.75;5113867;28;20219;-81
2021/04/26 06:05:56;;;;;;;1.97;1.40;;;;;;;3.49;55.61;101145.22;5113254;28;20732;-81
2021/04/26 06:08:22;;;;;;;1.43;1.30;;;;;;;3.58;54.96;101149.69;5113705;28;20248;-81
2021/04/26 06:10:48;;;;;;;2.13;1.50;;;;;;;3.66;54.04;101144.69;5114009;28;20199;-81
2021/04/26 06:13:14;;;;;;;1.83;1.67;;;;;;;3.71;53.96;101146.53;5113352;28;20242;-81
2021/04/26 06:15:40;;;;;;;3.77;1.50;;;;;;;3.74;54.80;101141.41;5115515;28;20298;-81
2021/04/26 06:18:08;;;;;;;5.43;1.63;;;;;;;3.85;54.33;101135.63;5115380;28;20269;-81
2021/04/26 06:20:34;;;;;;;2.37;1.50;;;;;;;3.91;54.25;101141.75;5113623;28;20211;-81
2021/04/26 06:23:01;;;;;;;1.60;1.50;;;;;;;3.98;53.79;101140.16;5112810;28;20250;-82
2021/04/26 06:25:27;;;;;;;4.03;1.53;;;;;;;4.06;53.46;101142.91;5113258;28;20214;-82
2021/04/26 06:27:53;;;;;;;2.77;2.10;;;;;;;4.12;53.59;101143.00;5113909;28;20600;-82
2021/04/26 06:30:19;;;;;;;1.87;1.70;;;;;;;4.17;54.16;101138.81;5115374;28;20687;-83
2021/04/26 06:32:45;;;;;;;2.27;1.70;;;;;;;4.21;53.97;101144.91;5117229;28;20689;-83
2021/04/26 06:35:12;;;;;;;1.63;1.43;;;;;;;4.30;53.69;101130.44;5119324;28;20210;-83
2021/04/26 06:37:38;;;;;;;1.87;1.57;;;;;;;4.37;52.89;101128.81;5117531;28;20219;-82
2021/04/26 06:40:06;;;;;;;1.93;1.57;;;;;;;4.44;53.46;101135.84;5117384;28;20612;-86
2021/04/26 06:42:32;;;;;;;3.37;1.37;;;;;;;4.49;53.25;101129.03;5122382;28;20228;-87
2021/04/26 06:44:58;;;;;;;2.77;2.10;;;;;;;4.56;52.24;101127.44;5119259;28;20199;-87
2021/04/26 06:47:24;;;;;;;2.20;1.77;;;;;;;4.64;52.85;101131.03;5122201;27;20258;-86
2021/04/26 06:49:50;;;;;;;3.40;1.70;;;;;;;4.72;52.01;101128.56;5123604;28;20200;-87
2021/04/26 06:52:17;;;;;;;1.93;1.50;;;;;;;4.79;51.88;101125.22;5124590;28;20271;-85
2021/04/26 06:54:43;;;;;;;3.03;1.70;;;;;;;4.83;51.39;101126.13;5140504;27;20199;-88
2021/04/26 06:57:10;;;;;;;5.90;1.77;;;;;;;4.88;51.17;101125.38;5128719;27;20246;-87
2021/04/26 06:59:36;;;;;;;3.80;1.80;;;;;;;4.98;50.83;101128.97;5135799;27;20203;-89
2021/04/26 07:02:02;;;;;;;1.63;1.47;;;;;;;5.04;49.78;101130.78;5135405;27;20227;-85
2021/04/26 07:04:28;;;;;;;3.07;1.30;;;;;;;5.08;49.85;101125.66;5135880;27;20197;-85
2021/04/26 07:06:54;;;;;;;2.23;1.13;;;;;;;5.16;50.30;101125.78;5132978;27;20274;-86
2021/04/26 07:09:20;;;;;;;1.67;1.57;;;;;;;5.24;50.06;101125.88;5132135;27;20229;-85
2021/04/26 07:11:46;;;;;;;2.20;1.20;;;;;;;5.32;50.36;101124.28;5133989;28;20221;-87
2021/04/26 07:14:12;;;;;;;1.83;1.50;;;;;;;5.39;50.13;101123.47;5130023;28;20208;-86
2021/04/26 07:16:40;;;;;;;1.83;1.17;;;;;;;5.44;49.15;101121.84;5130719;27;20219;-86
2021/04/26 07:19:06;;;;;;;1.77;1.13;;;;;;;5.50;48.54;101119.31;5130336;27;20195;-82
2021/04/26 07:21:31;;;;;;;2.70;1.00;;;;;;;5.57;47.27;101125.47;5122845;27;20254;-81
2021/04/26 07:23:57;;;;;;;1.10;1.00;;;;;;;5.62;47.32;101118.59;5122025;27;20199;-85
2021/04/26 07:26:23;;;;;;;0.97;0.97;;;;;;;5.70;47.71;101124.75;5120501;27;20235;-84
2021/04/26 07:28:49;;;;;;;5.20;1.20;;;;;;;5.96;55.19;101122.47;5120135;28;20634;-85
2021/04/26 07:31:16;;;;;;;0.70;0.70;;;;;;;6.06;50.29;101122.59;5120752;27;20211;-85
2021/04/26 07:33:42;;;;;;;0.80;0.80;;;;;;;6.16;46.19;101116.66;5119246;28;20577;-85
2021/04/26 07:36:08;;;;;;;2.67;1.37;;;;;;;6.19;46.03;101113.25;5118381;27;20250;-79
2021/04/26 07:38:35;;;;;;;1.73;0.93;;;;;;;6.22;45.15;101121.03;5116842;28;20564;-79
2021/04/26 07:41:01;;;;;;;1.00;0.90;;;;;;;6.27;46.53;101117.63;5116371;28;20693;-80
2021/04/26 07:43:27;;;;;;;1.47;0.90;;;;;;;6.35;45.61;101117.72;5116664;28;20215;-83
2021/04/26 07:45:53;;;;;;;1.10;1.00;;;;;;;6.40;46.29;101113.41;5120015;27;20237;-83
2021/04/26 07:48:20;;;;;;;1.27;1.10;;;;;;;6.49;46.46;101112.66;5117189;28;20257;-83
2021/04/26 07:50:46;;;;;;;1.80;0.97;;;;;;;6.56;45.89;101111.81;5119038;28;20222;-84
2021/04/26 07:53:13;;;;;;;1.20;1.10;;;;;;;6.61;44.94;101112.75;5117998;28;20665;-85
2021/04/26 07:55:39;;;;;;;1.07;0.90;;;;;;;6.67;44.74;101117.97;5119821;28;20208;-83
2021/04/26 07:58:05;;;;;;;1.93;1.00;;;;;;;6.72;45.51;101113.72;5118511;27;20224;-83
2021/04/26 08:00:31;;;;;;;0.70;0.70;;;;;;;6.89;44.89;101112.94;5119357;27;20211;-84
2021/04/26 08:02:58;;;;;;;1.20;0.90;;;;;;;7.01;46.31;101117.34;5117743;28;20253;-85
2021/04/26 08:05:24;;;;;;;1.63;0.70;;;;;;;7.14;47.57;101107.06;5119633;27;20573;-85
2021/04/26 08:07:50;;;;;;;1.77;1.10;;;;;;;7.27;44.03;101101.94;5117972;28;20602;-82
2021/04/26 08:10:17;;;;;;;2.03;0.80;;;;;;;7.32;44.67;101108.03;5117807;28;20290;-85
2021/04/26 08:12:43;;;;;;;1.13;0.80;;;;;;;7.44;45.51;101108.09;5116199;28;20215;-82
2021/04/26 08:15:11;;;;;;;4.13;0.90;;;;;;;7.49;41.98;101098.59;5118800;28;20209;-83
2021/04/26 08:17:37;;;;;;;1.20;0.70;;;;;;;7.64;47.55;101099.50;5118126;28;20227;-83
2021/04/26 08:20:04;;;;;;;2.07;1.10;;;;;;;7.79;43.74;101104.78;5118557;28;20208;-83
2021/04/26 08:22:31;;;;;;;1.10;1.00;;;;;;;7.86;42.00;101108.25;5119633;28;20278;-84
2021/04/26 08:24:57;;;;;;;3.20;0.70;;;;;;;7.88;40.75;101099.59;5119915;27;20213;-82
2021/04/26 08:27:23;;;;;;;2.97;1.40;;;;;;;8.10;42.57;101095.28;5116618;27;20223;-85
2021/04/26 08:29:49;;;;;;;1.07;0.90;;;;;;;8.21;40.91;101095.31;5118105;28;20215;-82
2021/04/26 08:32:15;;;;;;;2.17;0.90;;;;;;;8.25;40.47;101097.06;5115535;27;21381;-82
2021/04/26 08:34:42;;;;;;;1.17;1.00;;;;;;;8.25;40.07;101091.00;5113311;28;20239;-83
2021/04/26 08:37:07;;;;;;;1.00;0.80;;;;;;;8.34;42.77;101089.28;5115519;27;20226;-84
2021/04/26 08:39:34;;;;;;;1.00;0.70;;;;;;;8.46;38.82;101088.47;5116476;27;20231;-83
2021/04/26 08:42:01;;;;;;;0.80;0.80;;;;;;;8.49;38.30;101085.84;5114047;27;20230;-83
2021/04/26 08:44:27;;;;;;;2.47;1.00;;;;;;;8.49;36.88;101085.84;5115719;28;20247;-82
2021/04/26 08:46:53;;;;;;;1.43;0.80;;;;;;;8.42;37.14;101088.44;5113489;28;20628;-81
2021/04/26 08:49:20;;;;;;;0.70;0.70;;;;;;;8.42;38.01;101085.81;5113450;28;20306;-82
2021/04/26 08:51:47;;;;;;;1.10;1.00;;;;;;;8.51;39.68;101085.84;5113292;27;20220;-83
2021/04/26 08:54:14;;;;;;;2.03;1.13;;;;;;;8.62;39.85;101088.44;5112853;28;20683;-84
2021/04/26 08:56:41;;;;;;;1.13;0.70;;;;;;;8.72;37.72;101083.22;5114182;28;20261;-81
2021/04/26 08:59:07;;;;;;;1.07;0.80;;;;;;;8.82;36.43;101084.09;5113337;28;20206;-81
2021/04/26 09:01:33;;;;;;;1.70;0.77;;;;;;;8.84;38.73;101079.75;5111826;28;20210;-81
2021/04/26 09:04:07;;;;;;;0.73;0.73;;;;;;;8.91;38.91;101073.66;5113384;28;20210;-81
2021/04/26 09:07:10;;;;;;;1.30;1.00;;;;;;;8.98;35.65;101071.03;5114357;27;20240;-81
2021/04/26 09:09:39;;;;;;;1.77;1.07;;;;;;;8.97;37.49;101067.56;5051436;28;20223;-82
2021/04/26 09:12:08;;;;;;;1.13;1.03;;;;;;;8.99;35.91;101067.56;5051089;28;20216;-81
2021/04/26 09:14:36;;;;;;;2.27;0.93;;;;;;;8.97;35.76;101066.69;5084311;28;20221;-82
2021/04/26 09:17:40;;;;;;;0.77;0.77;;;;;;;9.13;40.32;101061.44;5113664;28;20234;-81
2021/04/26 09:20:25;;;;;;;1.63;0.97;;;;;;;9.35;37.64;101058.75;5114034;28;20230;-83
2021/04/26 09:22:54;;;;;;;1.27;1.13;;;;;;;9.51;36.13;101060.44;5112108;28;20207;-82
2021/04/26 09:25:29;;;;;;;1.10;1.00;;;;;;;9.79;34.66;101059.41;5113689;27;20210;-82
2021/04/26 09:27:59;;;;;;;1.43;1.00;;;;;;;9.83;35.04;101055.91;5113545;28;20220;-82
2021/04/26 09:30:45;;;;;;;1.33;1.07;;;;;;;9.88;34.85;101048.94;5112322;27;20203;-81
2021/04/26 09:33:30;;;;;;;1.57;1.00;;;;;;;9.98;35.05;101049.75;5112545;28;20363;-85
2021/04/26 09:36:13;;;;;;;2.03;1.20;;;;;;;9.82;33.79;101043.78;5113158;28;20206;-82
2021/04/26 09:38:43;;;;;;;0.97;0.97;;;;;;;9.78;33.62;101045.53;5115000;28;20209;-82
2021/04/26 09:41:18;;;;;;;1.87;1.00;;;;;;;9.74;34.56;101041.22;5115545;27;20238;-82
2021/04/26 09:43:47;;;;;;;1.70;1.37;;;;;;;9.68;35.80;101036.88;5114589;28;20310;-82
2021/04/26 09:46:14;;;;;;;1.17;1.07;;;;;;;9.56;32.16;101039.56;5113856;27;20229;-81
2021/04/26 09:48:40;;;;;;;0.97;0.97;;;;;;;9.55;33.29;101037.81;5112433;27;20611;-81
2021/04/26 09:51:09;;;;;;;1.90;1.13;;;;;;;9.59;34.27;101039.53;5112537;27;20210;-82
2021/04/26 09:53:46;;;;;;;2.10;1.07;;;;;;;9.58;33.70;101042.19;5113151;28;20201;-82
2021/04/26 09:56:14;;;;;;;1.27;1.17;;;;;;;9.58;33.05;101037.81;5112549;27;20641;-82
2021/04/26 09:58:42;;;;;;;2.80;1.20;;;;;;;9.58;34.48;101030.00;5112171;28;20206;-83
2021/04/26 10:01:09;;;;;;;2.70;1.10;;;;;;;9.64;32.80;101039.53;5114961;28;20255;-82
2021/04/26 10:03:34;;;;;;;2.13;1.20;;;;;;;9.56;35.42;101031.75;5114257;28;20233;-84
2021/04/26 10:06:01;;;;;;;1.63;0.90;;;;;;;9.61;40.00;101018.69;5114257;28;20230;-82
2021/04/26 10:08:27;;;;;;;2.90;1.20;;;;;;;9.61;36.26;101014.31;5114657;28;20203;-81
2021/04/26 10:10:54;;;;;;;1.53;1.37;;;;;;;9.72;33.68;101014.28;5113998;28;20239;-83
2021/04/26 10:13:22;;;;;;;1.40;1.00;;;;;;;9.80;35.95;101015.09;5113956;28;20243;-82
2021/04/26 10:15:54;;;;;;;1.03;1.03;;;;;;;9.90;32.07;101013.28;5113530;28;20624;-82
2021/04/26 10:18:28;;;;;;;2.30;1.40;;;;;;;9.88;33.34;100995.03;5113082;28;20224;-83
2021/04/26 10:20:54;;;;;;;1.47;1.23;;;;;;;9.70;31.89;101001.25;5113819;28;20203;-81
2021/04/26 10:23:39;;;;;;;1.27;1.17;;;;;;;9.82;34.72;100987.28;5110009;28;20224;-82
2021/04/26 10:26:05;;;;;;;2.93;1.23;;;;;;;9.99;37.30;100988.88;5112683;28;20252;-81
2021/04/26 10:28:34;;;;;;;0.93;0.93;;;;;;;10.20;35.16;100986.09;5111408;28;20206;-82
2021/04/26 10:31:04;;;;;;;1.67;1.10;;;;;;;10.27;33.56;100977.34;5113563;28;20210;-82
2021/04/26 10:34:06;;;;;;;2.57;1.20;;;;;;;10.41;40.74;100976.41;5112247;28;20205;-82
2021/04/26 10:36:44;;;;;;;2.20;1.40;;;;;;;10.48;33.91;100972.81;5113365;28;20231;-82
2021/04/26 10:39:12;;;;;;;1.53;1.40;;;;;;;10.47;32.15;100971.13;5113133;28;20202;-82
2021/04/26 10:41:57;;;;;;;2.67;1.10;;;;;;;10.51;32.72;100965.84;5109613;28;20249;-80
2021/04/26 10:44:52;;;;;;;2.03;1.10;;;;;;;10.49;32.12;100964.13;5111438;28;20198;-80
2021/04/26 10:47:34;;;;;;;1.67;1.50;;;;;;;10.52;32.04;100966.69;5074540;28;20708;-80
2021/04/26 10:50:28;;;;;;;1.50;1.20;;;;;;;10.48;32.61;100970.22;5110052;28;20555;-79
2021/04/26 10:52:55;;;;;;;1.53;1.43;;;;;;;10.45;32.56;100959.81;5112306;28;20205;-80
2021/04/26 10:55:55;;;;;;;1.00;1.00;;;;;;;10.65;33.30;100962.22;5113576;28;20718;-82
2021/04/26 10:58:36;;;;;;;1.83;1.33;;;;;;;10.69;32.24;100961.31;5113510;28;20203;-80
2021/04/26 11:01:03;;;;;;;1.70;1.57;;;;;;;10.60;31.18;100961.41;5113652;28;20202;-79
2021/04/26 11:03:37;;;;;;;2.33;1.43;;;;;;;10.52;31.82;100964.97;5110263;28;20319;-79
2021/04/26 11:06:17;;;;;;;2.10;1.30;;;;;;;10.62;33.01;100959.63;5111100;28;20661;-78
2021/04/26 11:11:39;;;;;;;1.67;1.50;;;;;;;10.82;33.05;100957.69;5109375;27;20257;-78
2021/04/26 11:14:06;;;;;;;1.67;1.50;;;;;;;10.95;31.19;100953.16;5109891;28;20218;-78
2021/04/26 11:16:39;;;;;;;2.93;1.47;;;;;;;11.33;30.45;100949.19;5109707;28;20237;-78
2021/04/26 11:19:10;;;;;;;1.90;1.80;;;;;;;11.01;28.67;100945.25;5110647;28;20198;-78
2021/04/26 11:22:04;;;;;;;1.27;1.17;;;;;;;11.45;33.53;100938.56;5108436;28;20207;-77
2021/04/26 11:25:00;;;;;;;5.10;1.20;;;;;;;11.91;31.56;100930.03;5107056;28;20562;-79
2021/04/26 11:27:26;;;;;;;1.10;1.00;;;;;;;11.99;32.83;100919.47;5107554;28;20283;-79
2021/04/26 11:30:21;;;;;;;2.10;1.07;;;;;;;12.50;29.25;100908.91;5108412;28;20211;-80
2021/04/26 11:33:24;;;;;;;1.50;1.10;;;;;;;14.92;26.85;100905.72;5107924;28;20199;-77
2021/04/26 11:36:21;;;;;;;1.27;1.17;;;;;;;18.03;23.36;100899.94;5105996;28;20264;-76
2021/04/26 11:38:48;;;;;;;1.60;1.00;;;;;;;20.18;20.69;100881.09;5108037;28;20202;-78
2021/04/26 11:41:15;;;;;;;1.30;1.20;;;;;;;21.42;18.49;100878.75;5106718;28;20214;-77
2021/04/26 11:43:50;;;;;;;1.40;1.30;;;;;;;22.45;17.35;100871.84;5106321;28;20707;-79